Hampton Beach, New Hampshire
Current Conditions -  °F | °C
As of 4:58 AM on Friday 21 Nov 2014 (Local Time) from KPSM Reporting Station
Clear Clear  
Wind Chill: 17°   Ceiling: Unl
Heat Index: 26°   Visibility: 10mi
Dew Point: 11°   Wind: 9mph
Humidity: 54%   Direction: 290°WNW
Pressure: 29.93"   Gusts: NA
Location:  42.9284°N, 70.8566°W
Report Text: KPSM 210958Z 29008KT 10SM CLR M03/M11 A2993 RMK AO2A SLP140 T10331115
Loading
Personal Weather Stations






























Interactive Weather Map New forecast layout! Learn more

10-Day Weather Forecast

Advertisements
Track Severe Weather on mobile